createdAt,value
2023-12-15T00:01:41.872Z,100.00
2023-12-15T00:06:44.576Z,100.00
2023-12-15T00:11:47.195Z,100.00
2023-12-15T00:16:49.802Z,100.00
2023-12-15T00:21:52.449Z,100.00
2023-12-15T00:26:55.655Z,100.00
2023-12-15T00:31:58.577Z,100.00
2023-12-15T00:37:01.196Z,100.00
2023-12-15T00:42:05.793Z,100.00
2023-12-15T00:47:08.445Z,100.00
2023-12-15T00:52:11.038Z,100.00
2023-12-15T00:57:13.708Z,100.00
2023-12-15T01:02:16.641Z,100.00
2023-12-15T01:07:19.274Z,100.00
2023-12-15T01:12:21.878Z,100.00
2023-12-15T01:17:24.657Z,100.00
2023-12-15T01:22:27.317Z,100.00
2023-12-15T01:27:29.890Z,100.00
2023-12-15T01:32:32.602Z,100.00
2023-12-15T01:37:35.600Z,100.00
2023-12-15T01:42:38.331Z,100.00
2023-12-15T01:47:41.874Z,100.00
2023-12-15T01:52:45.222Z,100.00
2023-12-15T01:57:47.840Z,100.00
2023-12-15T02:02:50.448Z,100.00
2023-12-15T02:07:53.138Z,100.00
2023-12-15T02:12:55.861Z,100.00
2023-12-15T02:17:58.653Z,100.00
2023-12-15T02:23:01.435Z,100.00
2023-12-15T02:28:05.019Z,100.00
2023-12-15T02:33:07.750Z,100.00
2023-12-15T02:38:10.595Z,100.00
2023-12-15T02:43:13.390Z,100.00
2023-12-15T02:48:18.225Z,100.00
2023-12-15T02:53:20.985Z,100.00
2023-12-15T02:58:23.876Z,100.00
2023-12-15T03:03:26.546Z,100.00
2023-12-15T03:08:29.436Z,100.00
2023-12-15T03:13:32.231Z,100.00
2023-12-15T03:18:34.843Z,100.00
2023-12-15T03:23:37.711Z,100.00
2023-12-15T03:28:41.200Z,100.00
2023-12-15T03:33:43.918Z,100.00
2023-12-15T03:38:46.586Z,100.00
2023-12-15T03:43:49.158Z,100.00
2023-12-15T03:48:51.857Z,100.00
2023-12-15T03:53:54.523Z,100.00
2023-12-15T03:58:57.164Z,100.00
2023-12-15T04:03:59.790Z,100.00
2023-12-15T04:09:02.378Z,100.00
2023-12-15T04:14:05.943Z,100.00
2023-12-15T04:19:09.225Z,100.00
2023-12-15T04:24:11.928Z,100.00
2023-12-15T04:29:14.519Z,100.00
2023-12-15T04:34:17.240Z,100.00
2023-12-15T04:39:19.999Z,100.00
2023-12-15T04:44:22.692Z,100.00
2023-12-15T04:49:25.415Z,100.00
2023-12-15T04:54:28.005Z,100.00
2023-12-15T04:59:30.623Z,100.00
2023-12-15T05:04:33.266Z,100.00
2023-12-15T05:09:35.859Z,100.00
2023-12-15T05:14:39.663Z,100.00
2023-12-15T05:19:42.386Z,100.00
2023-12-15T05:24:44.972Z,100.00
2023-12-15T05:29:48.001Z,100.00
2023-12-15T05:34:50.757Z,100.00
2023-12-15T05:39:53.322Z,100.00
2023-12-15T05:44:56.023Z,100.00
2023-12-15T05:49:58.677Z,100.00
2023-12-15T05:55:01.357Z,100.00
2023-12-15T06:00:04.616Z,100.00
2023-12-15T06:05:08.058Z,100.00
2023-12-15T06:10:11.810Z,100.00
2023-12-15T06:15:14.611Z,100.00
2023-12-15T06:20:19.018Z,100.00
2023-12-15T06:25:21.671Z,100.00
2023-12-15T06:30:24.373Z,100.00
2023-12-15T06:35:27.161Z,100.00
2023-12-15T06:40:29.954Z,100.00
2023-12-15T06:45:32.557Z,100.00
2023-12-15T06:50:35.195Z,100.00
2023-12-15T06:55:37.833Z,100.00
2023-12-15T07:00:40.719Z,100.00
2023-12-15T07:08:55.982Z,100.00
2023-12-15T07:13:58.597Z,100.00
2023-12-15T07:19:01.356Z,100.00
2023-12-15T07:24:04.308Z,100.00
2023-12-15T07:31:17.863Z,100.00
2023-12-15T07:36:20.513Z,39.32
2023-12-15T07:41:23.214Z,35.00
2023-12-15T07:45:45.917Z,34.59
2023-12-15T07:46:18.918Z,34.10
2023-12-15T07:46:49.813Z,34.48
2023-12-15T07:46:57.724Z,34.48
2023-12-15T07:47:05.334Z,34.75
2023-12-15T07:47:12.953Z,34.64
2023-12-15T07:47:20.466Z,34.34
2023-12-15T07:47:29.840Z,34.31
2023-12-15T07:48:03.978Z,34.15
2023-12-15T07:48:12.174Z,34.00
2023-12-15T07:48:19.886Z,34.01
2023-12-15T07:48:28.304Z,34.79
2023-12-15T07:48:36.065Z,34.82
2023-12-15T07:48:43.706Z,34.21
2023-12-15T07:49:04.272Z,34.72
2023-12-15T07:49:25.393Z,35.28
2023-12-15T07:49:35.580Z,35.24
2023-12-15T07:49:43.238Z,35.02
2023-12-15T07:49:50.798Z,35.62
2023-12-15T07:49:58.581Z,35.15
2023-12-15T07:50:06.825Z,35.29
2023-12-15T07:50:29.787Z,35.65
2023-12-15T07:50:39.020Z,35.96
2023-12-15T07:50:46.818Z,35.63
2023-12-15T07:50:55.838Z,35.94
2023-12-15T07:51:04.857Z,35.78
2023-12-15T07:51:22.472Z,36.33
2023-12-15T07:51:29.966Z,36.07
2023-12-15T07:51:47.950Z,36.16
2023-12-15T07:51:56.989Z,35.92
2023-12-15T07:52:05.328Z,36.26
2023-12-15T07:52:12.883Z,36.04
2023-12-15T07:52:32.882Z,36.37
2023-12-15T07:52:40.366Z,36.74
2023-12-15T07:53:00.500Z,36.68
2023-12-15T07:53:08.099Z,36.81
2023-12-15T07:53:15.684Z,37.09
2023-12-15T07:53:23.277Z,37.29
2023-12-15T07:53:43.770Z,37.07
2023-12-15T07:53:51.272Z,37.25
2023-12-15T07:54:11.469Z,37.32
2023-12-15T07:54:21.689Z,37.40
2023-12-15T07:54:30.468Z,37.80
2023-12-15T07:54:38.212Z,37.40
2023-12-15T07:54:45.693Z,37.47
2023-12-15T07:54:53.234Z,37.44
2023-12-15T07:55:13.503Z,37.90
2023-12-15T07:55:33.661Z,37.68
2023-12-15T07:55:41.178Z,37.10
2023-12-15T07:55:48.694Z,37.21
2023-12-15T07:55:56.222Z,37.52
2023-12-15T07:56:03.949Z,37.74
2023-12-15T07:56:29.156Z,37.80
2023-12-15T07:56:36.847Z,37.53
2023-12-15T07:56:44.509Z,37.61
2023-12-15T07:56:52.023Z,38.18
2023-12-15T07:56:59.526Z,37.88
2023-12-15T07:57:07.037Z,38.31
2023-12-15T07:57:41.205Z,38.81
2023-12-15T07:57:48.825Z,38.74
2023-12-15T07:57:56.321Z,38.73
2023-12-15T07:58:03.852Z,38.83
2023-12-15T07:58:11.441Z,38.94
2023-12-15T07:58:20.646Z,39.11
2023-12-15T07:58:53.901Z,39.60
2023-12-15T07:59:01.526Z,39.51
2023-12-15T07:59:09.316Z,39.71
2023-12-15T07:59:18.413Z,39.77
2023-12-15T07:59:26.738Z,39.87
2023-12-15T07:59:37.187Z,40.08
2023-12-15T07:59:57.229Z,40.12
2023-12-15T08:00:07.226Z,40.16
2023-12-15T08:00:35.026Z,40.25
2023-12-15T08:00:42.559Z,40.25
2023-12-15T08:00:53.032Z,40.30
2023-12-15T08:01:00.612Z,40.31
2023-12-15T08:01:10.554Z,40.62
2023-12-15T08:01:19.466Z,40.76
2023-12-15T08:01:39.482Z,40.74
2023-12-15T08:01:51.665Z,40.10
2023-12-15T08:02:01.277Z,39.53
2023-12-15T08:02:08.871Z,38.71
2023-12-15T08:02:21.124Z,38.07
2023-12-15T08:02:28.745Z,36.39
2023-12-15T08:02:49.054Z,34.17
2023-12-15T08:02:56.643Z,32.88
2023-12-15T08:03:05.195Z,32.13
2023-12-15T08:03:12.877Z,30.87
2023-12-15T08:03:32.997Z,28.49
2023-12-15T08:03:40.643Z,28.45
2023-12-15T08:03:49.025Z,27.79
2023-12-15T08:04:11.643Z,25.65
2023-12-15T08:11:04.011Z,45.03
2023-12-15T08:16:10.749Z,66.40
2023-12-15T08:21:14.181Z,82.65
2023-12-15T08:26:22.110Z,90.76
2023-12-15T08:31:25.212Z,94.67
2023-12-15T08:36:27.820Z,97.40
2023-12-15T08:41:30.426Z,98.44
2023-12-15T08:46:33.012Z,99.54
2023-12-15T08:51:35.661Z,99.87
2023-12-15T08:56:38.308Z,99.92
2023-12-15T09:01:40.994Z,99.82
2023-12-15T09:06:46.106Z,99.84
2023-12-15T09:11:50.252Z,99.82
2023-12-15T09:16:52.962Z,99.00
2023-12-15T09:21:55.547Z,98.80
2023-12-15T09:26:58.141Z,98.34
2023-12-15T09:32:00.846Z,97.68
2023-12-15T09:37:03.642Z,96.58
2023-12-15T09:42:06.796Z,96.20
2023-12-15T09:47:10.613Z,95.73
2023-12-15T09:52:16.145Z,95.74
2023-12-15T09:57:19.726Z,95.91
2023-12-15T10:02:22.798Z,95.25
2023-12-15T10:07:25.430Z,93.97
2023-12-15T10:12:31.652Z,93.93
2023-12-15T10:17:35.106Z,93.88
2023-12-15T10:22:40.859Z,93.68
2023-12-15T10:27:43.962Z,93.56
2023-12-15T10:32:47.298Z,93.37
2023-12-15T10:37:50.468Z,93.20
2023-12-15T10:42:54.046Z,93.31
2023-12-15T10:47:59.990Z,93.84
2023-12-15T10:53:03.761Z,93.92
2023-12-15T10:58:09.757Z,94.88
2023-12-15T11:03:12.503Z,94.64
2023-12-15T11:08:16.259Z,94.13
2023-12-15T11:13:49.533Z,94.52
2023-12-15T11:18:55.557Z,93.59
2023-12-15T11:24:01.419Z,95.05
2023-12-15T11:29:13.597Z,95.05
2023-12-15T11:34:38.492Z,94.40
2023-12-15T11:39:41.820Z,94.48
2023-12-15T11:44:45.908Z,94.50
2023-12-15T11:49:50.045Z,94.75
2023-12-15T11:54:52.731Z,94.88
2023-12-15T11:59:55.349Z,95.20
2023-12-15T12:04:59.373Z,95.34
2023-12-15T12:10:08.323Z,95.98
2023-12-15T12:15:11.902Z,95.59
2023-12-15T12:20:14.900Z,95.33
2023-12-15T12:25:18.051Z,94.94
2023-12-15T12:30:20.718Z,95.56
2023-12-15T12:35:23.430Z,95.16
2023-12-15T12:40:26.161Z,96.19
2023-12-15T12:45:29.703Z,96.09
2023-12-15T12:50:33.297Z,96.47
2023-12-15T12:55:36.124Z,97.20
2023-12-15T13:00:38.900Z,97.31
2023-12-15T13:05:42.097Z,97.12
2023-12-15T13:10:44.771Z,97.45
2023-12-15T13:15:47.356Z,97.75
2023-12-15T13:20:50.156Z,98.07
2023-12-15T13:25:52.988Z,98.14
2023-12-15T13:30:57.854Z,99.25
2023-12-15T13:36:10.416Z,99.36
2023-12-15T13:41:18.451Z,99.82
2023-12-15T13:46:22.529Z,99.10
2023-12-15T13:51:25.584Z,99.37
2023-12-15T13:56:29.449Z,99.00
2023-12-15T14:01:32.086Z,99.50
2023-12-15T14:06:35.289Z,99.81
2023-12-15T14:11:39.585Z,100.00
2023-12-15T14:16:47.205Z,100.00
2023-12-15T14:21:50.472Z,100.00
2023-12-15T14:26:53.151Z,100.00
2023-12-15T14:31:55.846Z,100.00
2023-12-15T14:36:58.406Z,100.00
2023-12-15T14:42:01.024Z,100.00
2023-12-15T14:47:04.638Z,100.00
2023-12-15T14:52:07.423Z,100.00
2023-12-15T14:57:10.197Z,100.00
2023-12-15T15:02:12.814Z,100.00
2023-12-15T15:07:15.466Z,100.00
2023-12-15T15:12:18.138Z,100.00
2023-12-15T15:17:21.361Z,100.00
2023-12-15T15:22:24.472Z,100.00
2023-12-15T15:27:28.007Z,100.00
2023-12-15T15:32:30.687Z,100.00
2023-12-15T15:37:33.306Z,100.00
2023-12-15T15:42:35.882Z,100.00
2023-12-15T15:47:39.421Z,100.00
2023-12-15T15:52:42.380Z,100.00
2023-12-15T15:57:48.081Z,100.00
2023-12-15T16:02:52.215Z,100.00
2023-12-15T16:07:54.884Z,100.00
2023-12-15T16:12:57.996Z,100.00
2023-12-15T16:18:00.586Z,100.00
2023-12-15T16:23:03.838Z,100.00
2023-12-15T16:28:06.567Z,100.00
2023-12-15T16:33:09.291Z,100.00
2023-12-15T16:38:12.107Z,100.00
2023-12-15T16:43:16.003Z,100.00
2023-12-15T16:48:20.675Z,100.00
2023-12-15T16:53:23.460Z,100.00
2023-12-15T16:58:26.211Z,100.00
2023-12-15T17:03:28.800Z,100.00
2023-12-15T17:08:31.352Z,100.00
2023-12-15T17:13:34.032Z,100.00
2023-12-15T17:18:37.059Z,100.00
2023-12-15T17:23:39.771Z,100.00
2023-12-15T17:28:43.240Z,100.00
2023-12-15T17:33:45.997Z,100.00
2023-12-15T17:38:48.696Z,100.00
2023-12-15T17:43:51.309Z,100.00
2023-12-15T17:48:54.032Z,100.00
2023-12-15T17:53:56.723Z,100.00
2023-12-15T17:58:59.400Z,100.00
2023-12-15T18:04:02.076Z,100.00
2023-12-15T18:09:06.025Z,100.00
2023-12-15T18:14:10.656Z,100.00
2023-12-15T18:19:13.462Z,100.00
2023-12-15T18:24:16.037Z,100.00
2023-12-15T18:29:18.775Z,100.00
2023-12-15T18:34:22.843Z,100.00
2023-12-15T18:39:26.835Z,100.00
2023-12-15T18:44:29.735Z,100.00
2023-12-15T18:49:32.480Z,100.00
2023-12-15T18:54:35.138Z,100.00
2023-12-15T18:59:38.356Z,100.00
2023-12-15T19:04:43.798Z,100.00
2023-12-15T19:09:46.529Z,100.00
2023-12-15T19:14:49.228Z,100.00
2023-12-15T19:19:52.018Z,100.00
2023-12-15T19:24:55.754Z,100.00
2023-12-15T19:29:58.574Z,100.00
2023-12-15T19:35:01.335Z,100.00
2023-12-15T19:40:05.280Z,100.00
2023-12-15T19:45:08.938Z,100.00
2023-12-15T19:50:11.603Z,100.00
2023-12-15T19:55:17.191Z,100.00
2023-12-15T20:00:20.571Z,100.00
2023-12-15T20:05:24.205Z,100.00
2023-12-15T20:10:26.973Z,100.00
2023-12-15T20:15:29.617Z,100.00
2023-12-15T20:20:32.342Z,100.00
2023-12-15T20:25:34.971Z,100.00
2023-12-15T20:30:37.590Z,100.00
2023-12-15T20:35:41.251Z,100.00
2023-12-15T20:40:45.887Z,100.00
2023-12-15T20:45:49.143Z,100.00
2023-12-15T20:50:53.768Z,100.00
2023-12-15T20:55:56.698Z,100.00
2023-12-15T21:00:59.574Z,100.00
2023-12-15T21:06:02.263Z,100.00
2023-12-15T21:11:06.072Z,100.00
2023-12-15T21:16:09.856Z,100.00
2023-12-15T21:21:12.625Z,100.00
2023-12-15T21:26:16.874Z,100.00
2023-12-15T21:31:19.991Z,100.00
2023-12-15T21:36:23.044Z,100.00
2023-12-15T21:41:25.641Z,100.00
2023-12-15T21:46:28.281Z,100.00
2023-12-15T21:51:31.879Z,100.00
2023-12-15T21:56:34.493Z,100.00
2023-12-15T22:01:37.486Z,100.00
